Kinnear, Wyoming
Current Conditions -  °F | °C
As of 6:53 PM on Friday 24 Oct 2014 (Local Time) from KRIW Reporting Station
Clear Clear  
Wind Chill: 63°   Ceiling: Unl
Heat Index: 63°   Visibility: 10mi
Dew Point: 19°   Wind: 7mph
Humidity: 18%   Direction: 260°W
Pressure: 30.09"   Gusts: NA
Location:  43.15°N, 108.68°W
Report Text: KRIW 250053Z AUTO 26006KT 10SM CLR 17/M07 A3009 RMK AO2 SLP152 T01721072
Loading
Personal Weather Stations






























Interactive Weather Map
Tropical Storm Tracking
New forecast layout! Learn more

10-Day Weather Forecast

Advertisements
Track Severe Weather on mobile